sensor_id;sensor_type;location;lat;lon;timestamp;P1;durP1;ratioP1;P2;durP2;ratioP2
24901;SDS011;31328;51.402;0.016;2023-02-15T00:01:38;41.07;;;21.27;;
24901;SDS011;31328;51.402;0.016;2023-02-15T00:04:05;37.50;;;21.27;;
24901;SDS011;31328;51.402;0.016;2023-02-15T00:06:32;42.77;;;22.47;;
24901;SDS011;31328;51.402;0.016;2023-02-15T00:08:59;38.87;;;22.17;;
24901;SDS011;31328;51.402;0.016;2023-02-15T00:11:25;43.03;;;22.50;;
24901;SDS011;31328;51.402;0.016;2023-02-15T00:14:16;40.93;;;22.43;;
24901;SDS011;31328;51.402;0.016;2023-02-15T00:16:45;46.27;;;22.37;;
24901;SDS011;31328;51.402;0.016;2023-02-15T00:19:13;37.87;;;21.43;;
24901;SDS011;31328;51.402;0.016;2023-02-15T00:21:41;41.97;;;23.40;;
24901;SDS011;31328;51.402;0.016;2023-02-15T00:24:08;41.83;;;23.67;;
24901;SDS011;31328;51.402;0.016;2023-02-15T00:26:37;41.17;;;22.70;;
24901;SDS011;31328;51.402;0.016;2023-02-15T00:29:05;45.63;;;24.23;;
24901;SDS011;31328;51.402;0.016;2023-02-15T00:31:31;41.67;;;23.90;;
24901;SDS011;31328;51.402;0.016;2023-02-15T00:34:06;38.83;;;22.80;;
24901;SDS011;31328;51.402;0.016;2023-02-15T00:36:36;45.80;;;23.33;;
24901;SDS011;31328;51.402;0.016;2023-02-15T00:39:02;46.40;;;25.33;;
24901;SDS011;31328;51.402;0.016;2023-02-15T00:41:30;44.13;;;24.33;;
24901;SDS011;31328;51.402;0.016;2023-02-15T00:43:57;44.60;;;24.67;;
24901;SDS011;31328;51.402;0.016;2023-02-15T00:46:24;44.67;;;24.27;;
24901;SDS011;31328;51.402;0.016;2023-02-15T00:48:50;43.40;;;25.30;;
24901;SDS011;31328;51.402;0.016;2023-02-15T00:51:17;50.23;;;26.40;;
24901;SDS011;31328;51.402;0.016;2023-02-15T00:53:43;46.10;;;24.17;;
24901;SDS011;31328;51.402;0.016;2023-02-15T00:56:10;46.97;;;25.73;;
24901;SDS011;31328;51.402;0.016;2023-02-15T00:58:36;48.53;;;26.30;;
24901;SDS011;31328;51.402;0.016;2023-02-15T01:01:05;49.47;;;26.27;;
24901;SDS011;31328;51.402;0.016;2023-02-15T01:03:36;46.90;;;25.30;;
24901;SDS011;31328;51.402;0.016;2023-02-15T01:06:03;47.83;;;25.77;;
24901;SDS011;31328;51.402;0.016;2023-02-15T01:08:30;45.53;;;25.03;;
24901;SDS011;31328;51.402;0.016;2023-02-15T01:10:56;48.80;;;25.63;;
24901;SDS011;31328;51.402;0.016;2023-02-15T01:13:29;49.27;;;26.67;;
24901;SDS011;31328;51.402;0.016;2023-02-15T01:15:56;49.97;;;28.53;;
24901;SDS011;31328;51.402;0.016;2023-02-15T01:18:22;49.73;;;27.53;;
24901;SDS011;31328;51.402;0.016;2023-02-15T01:20:49;50.70;;;26.50;;
24901;SDS011;31328;51.402;0.016;2023-02-15T01:23:15;49.03;;;26.70;;
24901;SDS011;31328;51.402;0.016;2023-02-15T01:25:42;47.33;;;26.03;;
24901;SDS011;31328;51.402;0.016;2023-02-15T01:28:10;45.53;;;26.20;;
24901;SDS011;31328;51.402;0.016;2023-02-15T01:30:38;52.20;;;27.20;;
24901;SDS011;31328;51.402;0.016;2023-02-15T01:33:05;51.80;;;27.80;;
24901;SDS011;31328;51.402;0.016;2023-02-15T01:35:31;50.63;;;27.60;;
24901;SDS011;31328;51.402;0.016;2023-02-15T01:37:57;47.27;;;26.27;;
24901;SDS011;31328;51.402;0.016;2023-02-15T01:40:24;53.47;;;28.07;;
24901;SDS011;31328;51.402;0.016;2023-02-15T01:42:52;48.73;;;28.07;;
24901;SDS011;31328;51.402;0.016;2023-02-15T01:45:26;46.80;;;27.07;;
24901;SDS011;31328;51.402;0.016;2023-02-15T01:50:31;50.37;;;26.47;;
24901;SDS011;31328;51.402;0.016;2023-02-15T01:55:36;49.53;;;26.17;;
24901;SDS011;31328;51.402;0.016;2023-02-15T01:58:08;49.30;;;27.60;;
24901;SDS011;31328;51.402;0.016;2023-02-15T02:00:35;48.20;;;26.73;;
24901;SDS011;31328;51.402;0.016;2023-02-15T02:03:02;47.57;;;26.23;;
24901;SDS011;31328;51.402;0.016;2023-02-15T02:05:29;46.73;;;27.07;;
24901;SDS011;31328;51.402;0.016;2023-02-15T02:07:56;49.67;;;27.77;;
24901;SDS011;31328;51.402;0.016;2023-02-15T02:10:25;49.77;;;28.77;;
24901;SDS011;31328;51.402;0.016;2023-02-15T02:12:52;50.53;;;29.20;;
24901;SDS011;31328;51.402;0.016;2023-02-15T02:15:24;52.10;;;28.50;;
24901;SDS011;31328;51.402;0.016;2023-02-15T02:18:15;47.00;;;26.00;;
24901;SDS011;31328;51.402;0.016;2023-02-15T02:23:40;49.17;;;27.87;;
24901;SDS011;31328;51.402;0.016;2023-02-15T02:34:42;49.43;;;26.47;;
24901;SDS011;31328;51.402;0.016;2023-02-15T02:45:15;46.20;;;26.63;;
24901;SDS011;31328;51.402;0.016;2023-02-15T02:47:50;50.47;;;27.33;;
24901;SDS011;31328;51.402;0.016;2023-02-15T02:50:28;53.53;;;27.87;;
24901;SDS011;31328;51.402;0.016;2023-02-15T02:52:56;54.33;;;28.70;;
24901;SDS011;31328;51.402;0.016;2023-02-15T02:55:30;52.80;;;28.50;;
24901;SDS011;31328;51.402;0.016;2023-02-15T03:00:57;53.83;;;28.80;;
24901;SDS011;31328;51.402;0.016;2023-02-15T03:03:33;52.47;;;28.50;;
24901;SDS011;31328;51.402;0.016;2023-02-15T03:06:10;49.47;;;28.97;;
24901;SDS011;31328;51.402;0.016;2023-02-15T03:08:46;49.27;;;27.33;;
24901;SDS011;31328;51.402;0.016;2023-02-15T03:11:16;53.20;;;30.50;;
24901;SDS011;31328;51.402;0.016;2023-02-15T03:13:43;51.43;;;30.17;;
24901;SDS011;31328;51.402;0.016;2023-02-15T03:16:12;52.83;;;28.40;;
24901;SDS011;31328;51.402;0.016;2023-02-15T03:18:58;51.83;;;28.87;;
24901;SDS011;31328;51.402;0.016;2023-02-15T03:21:50;51.13;;;28.03;;
24901;SDS011;31328;51.402;0.016;2023-02-15T03:24:34;53.07;;;28.50;;
24901;SDS011;31328;51.402;0.016;2023-02-15T03:27:38;56.03;;;31.07;;
24901;SDS011;31328;51.402;0.016;2023-02-15T03:30:10;60.80;;;31.03;;
24901;SDS011;31328;51.402;0.016;2023-02-15T03:32:39;63.33;;;31.90;;
24901;SDS011;31328;51.402;0.016;2023-02-15T03:35:07;64.07;;;33.87;;
24901;SDS011;31328;51.402;0.016;2023-02-15T03:37:39;58.37;;;31.87;;
24901;SDS011;31328;51.402;0.016;2023-02-15T03:40:11;60.50;;;31.00;;
24901;SDS011;31328;51.402;0.016;2023-02-15T03:49:02;67.63;;;35.20;;
24901;SDS011;31328;51.402;0.016;2023-02-15T03:51:34;65.83;;;34.57;;
24901;SDS011;31328;51.402;0.016;2023-02-15T03:54:11;66.63;;;34.53;;
24901;SDS011;31328;51.402;0.016;2023-02-15T03:57:01;66.13;;;35.43;;
24901;SDS011;31328;51.402;0.016;2023-02-15T03:59:46;66.03;;;33.67;;
24901;SDS011;31328;51.402;0.016;2023-02-15T04:05:25;70.17;;;35.37;;
24901;SDS011;31328;51.402;0.016;2023-02-15T04:07:51;68.63;;;36.47;;
24901;SDS011;31328;51.402;0.016;2023-02-15T04:10:18;70.77;;;35.27;;
24901;SDS011;31328;51.402;0.016;2023-02-15T04:15:29;66.67;;;34.83;;
24901;SDS011;31328;51.402;0.016;2023-02-15T04:18:14;77.20;;;36.93;;
24901;SDS011;31328;51.402;0.016;2023-02-15T04:20:44;69.90;;;35.43;;
24901;SDS011;31328;51.402;0.016;2023-02-15T04:23:30;78.80;;;37.60;;
24901;SDS011;31328;51.402;0.016;2023-02-15T04:26:16;75.70;;;38.60;;
24901;SDS011;31328;51.402;0.016;2023-02-15T04:28:42;75.93;;;37.67;;
24901;SDS011;31328;51.402;0.016;2023-02-15T04:31:08;76.93;;;38.87;;
24901;SDS011;31328;51.402;0.016;2023-02-15T04:33:35;74.83;;;38.13;;
24901;SDS011;31328;51.402;0.016;2023-02-15T04:36:02;73.03;;;37.83;;
24901;SDS011;31328;51.402;0.016;2023-02-15T04:38:29;74.33;;;38.17;;
24901;SDS011;31328;51.402;0.016;2023-02-15T04:40:56;74.73;;;38.33;;
24901;SDS011;31328;51.402;0.016;2023-02-15T04:43:22;71.73;;;37.93;;
24901;SDS011;31328;51.402;0.016;2023-02-15T04:45:49;74.80;;;37.83;;
24901;SDS011;31328;51.402;0.016;2023-02-15T04:48:16;72.03;;;38.20;;
24901;SDS011;31328;51.402;0.016;2023-02-15T04:50:44;68.93;;;37.47;;
24901;SDS011;31328;51.402;0.016;2023-02-15T04:53:10;76.37;;;37.67;;
24901;SDS011;31328;51.402;0.016;2023-02-15T04:55:36;75.00;;;40.57;;
24901;SDS011;31328;51.402;0.016;2023-02-15T04:58:03;78.30;;;39.37;;
24901;SDS011;31328;51.402;0.016;2023-02-15T05:00:29;78.27;;;40.43;;
24901;SDS011;31328;51.402;0.016;2023-02-15T05:02:55;75.33;;;39.17;;
24901;SDS011;31328;51.402;0.016;2023-02-15T05:05:22;73.87;;;38.27;;
24901;SDS011;31328;51.402;0.016;2023-02-15T05:07:48;73.37;;;38.13;;
24901;SDS011;31328;51.402;0.016;2023-02-15T05:10:14;77.80;;;40.30;;
24901;SDS011;31328;51.402;0.016;2023-02-15T05:12:41;78.60;;;42.17;;
24901;SDS011;31328;51.402;0.016;2023-02-15T05:15:07;79.87;;;39.53;;
24901;SDS011;31328;51.402;0.016;2023-02-15T05:17:34;79.77;;;39.20;;
24901;SDS011;31328;51.402;0.016;2023-02-15T05:20:00;74.90;;;38.97;;
24901;SDS011;31328;51.402;0.016;2023-02-15T05:22:27;75.53;;;38.83;;
24901;SDS011;31328;51.402;0.016;2023-02-15T05:24:53;81.43;;;40.97;;
24901;SDS011;31328;51.402;0.016;2023-02-15T05:27:38;72.95;;;38.55;;
24901;SDS011;31328;51.402;0.016;2023-02-15T05:32:49;77.77;;;38.87;;
24901;SDS011;31328;51.402;0.016;2023-02-15T05:35:15;76.50;;;38.83;;
24901;SDS011;31328;51.402;0.016;2023-02-15T05:37:42;75.53;;;39.23;;
24901;SDS011;31328;51.402;0.016;2023-02-15T05:40:08;72.87;;;38.73;;
24901;SDS011;31328;51.402;0.016;2023-02-15T05:42:35;71.57;;;36.57;;
24901;SDS011;31328;51.402;0.016;2023-02-15T05:45:01;74.83;;;39.70;;
24901;SDS011;31328;51.402;0.016;2023-02-15T05:47:29;75.47;;;38.40;;
24901;SDS011;31328;51.402;0.016;2023-02-15T05:49:55;76.53;;;39.03;;
24901;SDS011;31328;51.402;0.016;2023-02-15T05:52:22;72.53;;;38.53;;
24901;SDS011;31328;51.402;0.016;2023-02-15T05:54:48;72.23;;;37.00;;
24901;SDS011;31328;51.402;0.016;2023-02-15T05:57:14;72.63;;;38.30;;
24901;SDS011;31328;51.402;0.016;2023-02-15T05:59:40;71.97;;;36.60;;
24901;SDS011;31328;51.402;0.016;2023-02-15T06:02:07;72.57;;;37.40;;
24901;SDS011;31328;51.402;0.016;2023-02-15T06:04:33;72.27;;;37.80;;
24901;SDS011;31328;51.402;0.016;2023-02-15T06:06:59;68.33;;;35.47;;
24901;SDS011;31328;51.402;0.016;2023-02-15T06:09:26;70.60;;;36.83;;
24901;SDS011;31328;51.402;0.016;2023-02-15T06:11:52;69.07;;;37.20;;
24901;SDS011;31328;51.402;0.016;2023-02-15T06:14:18;69.10;;;38.03;;
24901;SDS011;31328;51.402;0.016;2023-02-15T06:16:45;72.20;;;38.13;;
24901;SDS011;31328;51.402;0.016;2023-02-15T06:19:11;74.33;;;36.63;;
24901;SDS011;31328;51.402;0.016;2023-02-15T06:21:37;70.53;;;37.00;;
24901;SDS011;31328;51.402;0.016;2023-02-15T06:24:04;65.30;;;36.73;;
24901;SDS011;31328;51.402;0.016;2023-02-15T06:26:30;71.77;;;36.30;;
24901;SDS011;31328;51.402;0.016;2023-02-15T06:28:56;68.23;;;35.87;;
24901;SDS011;31328;51.402;0.016;2023-02-15T06:31:23;69.00;;;34.87;;
24901;SDS011;31328;51.402;0.016;2023-02-15T06:33:49;66.37;;;34.50;;
24901;SDS011;31328;51.402;0.016;2023-02-15T06:36:15;67.43;;;36.77;;
24901;SDS011;31328;51.402;0.016;2023-02-15T06:38:42;69.47;;;35.87;;
24901;SDS011;31328;51.402;0.016;2023-02-15T06:41:08;69.37;;;35.73;;
24901;SDS011;31328;51.402;0.016;2023-02-15T06:43:34;67.93;;;37.20;;
24901;SDS011;31328;51.402;0.016;2023-02-15T06:46:01;63.30;;;36.00;;
24901;SDS011;31328;51.402;0.016;2023-02-15T06:48:27;69.97;;;36.93;;
24901;SDS011;31328;51.402;0.016;2023-02-15T06:50:53;63.97;;;35.03;;
24901;SDS011;31328;51.402;0.016;2023-02-15T06:53:19;65.73;;;35.13;;
24901;SDS011;31328;51.402;0.016;2023-02-15T06:55:46;63.73;;;34.57;;
24901;SDS011;31328;51.402;0.016;2023-02-15T06:58:12;66.77;;;34.80;;
24901;SDS011;31328;51.402;0.016;2023-02-15T07:00:39;62.83;;;34.57;;
24901;SDS011;31328;51.402;0.016;2023-02-15T07:03:05;57.97;;;34.43;;
24901;SDS011;31328;51.402;0.016;2023-02-15T07:05:32;63.37;;;33.40;;
24901;SDS011;31328;51.402;0.016;2023-02-15T07:08:00;64.33;;;32.83;;
24901;SDS011;31328;51.402;0.016;2023-02-15T07:10:27;63.23;;;34.87;;
24901;SDS011;31328;51.402;0.016;2023-02-15T07:12:53;68.17;;;34.93;;
24901;SDS011;31328;51.402;0.016;2023-02-15T07:15:20;64.07;;;34.20;;
24901;SDS011;31328;51.402;0.016;2023-02-15T07:17:47;68.80;;;35.03;;
24901;SDS011;31328;51.402;0.016;2023-02-15T07:20:16;66.23;;;34.63;;
24901;SDS011;31328;51.402;0.016;2023-02-15T07:22:44;66.57;;;35.20;;
24901;SDS011;31328;51.402;0.016;2023-02-15T07:25:11;67.73;;;35.87;;
24901;SDS011;31328;51.402;0.016;2023-02-15T07:27:38;66.23;;;33.73;;
24901;SDS011;31328;51.402;0.016;2023-02-15T07:30:06;65.77;;;35.57;;
24901;SDS011;31328;51.402;0.016;2023-02-15T07:32:33;72.57;;;36.80;;
24901;SDS011;31328;51.402;0.016;2023-02-15T07:35:01;67.70;;;36.70;;
24901;SDS011;31328;51.402;0.016;2023-02-15T07:37:27;67.33;;;34.50;;
24901;SDS011;31328;51.402;0.016;2023-02-15T07:39:53;68.63;;;35.10;;
24901;SDS011;31328;51.402;0.016;2023-02-15T07:42:20;66.57;;;35.33;;
24901;SDS011;31328;51.402;0.016;2023-02-15T07:44:47;70.27;;;36.43;;
24901;SDS011;31328;51.402;0.016;2023-02-15T07:47:13;71.13;;;38.07;;
24901;SDS011;31328;51.402;0.016;2023-02-15T07:49:40;72.63;;;37.70;;
24901;SDS011;31328;51.402;0.016;2023-02-15T07:52:06;68.53;;;37.77;;
24901;SDS011;31328;51.402;0.016;2023-02-15T07:54:32;71.13;;;35.97;;
24901;SDS011;31328;51.402;0.016;2023-02-15T07:57:00;68.70;;;37.47;;
24901;SDS011;31328;51.402;0.016;2023-02-15T07:59:26;67.97;;;36.73;;
24901;SDS011;31328;51.402;0.016;2023-02-15T08:01:53;64.90;;;36.87;;
24901;SDS011;31328;51.402;0.016;2023-02-15T08:04:21;65.23;;;33.50;;
24901;SDS011;31328;51.402;0.016;2023-02-15T08:06:51;66.93;;;34.07;;
24901;SDS011;31328;51.402;0.016;2023-02-15T08:09:19;62.97;;;34.83;;
24901;SDS011;31328;51.402;0.016;2023-02-15T08:11:46;63.83;;;33.77;;
24901;SDS011;31328;51.402;0.016;2023-02-15T08:14:17;60.03;;;33.23;;
24901;SDS011;31328;51.402;0.016;2023-02-15T08:16:46;55.13;;;31.20;;
24901;SDS011;31328;51.402;0.016;2023-02-15T08:19:26;54.17;;;30.03;;
24901;SDS011;31328;51.402;0.016;2023-02-15T08:21:54;52.87;;;28.53;;
24901;SDS011;31328;51.402;0.016;2023-02-15T08:24:23;47.97;;;29.83;;
24901;SDS011;31328;51.402;0.016;2023-02-15T08:26:51;47.53;;;30.03;;
24901;SDS011;31328;51.402;0.016;2023-02-15T08:29:19;46.97;;;25.87;;
24901;SDS011;31328;51.402;0.016;2023-02-15T08:31:48;44.40;;;26.80;;
24901;SDS011;31328;51.402;0.016;2023-02-15T08:34:16;45.37;;;26.43;;
24901;SDS011;31328;51.402;0.016;2023-02-15T08:36:44;45.67;;;26.53;;
24901;SDS011;31328;51.402;0.016;2023-02-15T08:39:11;44.03;;;26.23;;
24901;SDS011;31328;51.402;0.016;2023-02-15T08:41:38;46.03;;;25.27;;
24901;SDS011;31328;51.402;0.016;2023-02-15T08:44:09;43.10;;;24.67;;
24901;SDS011;31328;51.402;0.016;2023-02-15T08:46:37;42.57;;;24.33;;
24901;SDS011;31328;51.402;0.016;2023-02-15T08:49:05;42.53;;;23.87;;
24901;SDS011;31328;51.402;0.016;2023-02-15T08:51:35;42.83;;;24.53;;
24901;SDS011;31328;51.402;0.016;2023-02-15T08:54:04;45.17;;;25.03;;
24901;SDS011;31328;51.402;0.016;2023-02-15T08:56:33;45.03;;;25.30;;
24901;SDS011;31328;51.402;0.016;2023-02-15T08:59:02;42.87;;;26.03;;
24901;SDS011;31328;51.402;0.016;2023-02-15T09:01:30;42.70;;;25.37;;
24901;SDS011;31328;51.402;0.016;2023-02-15T09:04:01;42.40;;;24.13;;
24901;SDS011;31328;51.402;0.016;2023-02-15T09:06:29;36.63;;;22.90;;
24901;SDS011;31328;51.402;0.016;2023-02-15T09:08:56;40.77;;;24.13;;
24901;SDS011;31328;51.402;0.016;2023-02-15T09:11:23;44.17;;;24.60;;
24901;SDS011;31328;51.402;0.016;2023-02-15T09:13:55;42.57;;;23.43;;
24901;SDS011;31328;51.402;0.016;2023-02-15T09:18:53;39.07;;;22.63;;
24901;SDS011;31328;51.402;0.016;2023-02-15T09:21:22;40.47;;;23.47;;
24901;SDS011;31328;51.402;0.016;2023-02-15T09:23:50;37.07;;;23.83;;
24901;SDS011;31328;51.402;0.016;2023-02-15T09:26:21;40.97;;;22.67;;
24901;SDS011;31328;51.402;0.016;2023-02-15T09:28:51;40.30;;;24.03;;
24901;SDS011;31328;51.402;0.016;2023-02-15T09:31:22;37.27;;;23.03;;
24901;SDS011;31328;51.402;0.016;2023-02-15T09:33:50;33.83;;;20.97;;
24901;SDS011;31328;51.402;0.016;2023-02-15T09:36:18;38.80;;;23.57;;
24901;SDS011;31328;51.402;0.016;2023-02-15T09:38:50;34.50;;;20.73;;
24901;SDS011;31328;51.402;0.016;2023-02-15T09:41:26;36.38;;;21.25;;
24901;SDS011;31328;51.402;0.016;2023-02-15T10:04:00;29.23;;;18.23;;
24901;SDS011;31328;51.402;0.016;2023-02-15T10:25:42;28.53;;;17.20;;
24901;SDS011;31328;51.402;0.016;2023-02-15T10:28:39;24.93;;;17.53;;
24901;SDS011;31328;51.402;0.016;2023-02-15T10:31:28;25.23;;;16.80;;
24901;SDS011;31328;51.402;0.016;2023-02-15T10:34:11;23.63;;;14.70;;
24901;SDS011;31328;51.402;0.016;2023-02-15T10:50:43;23.70;;;16.50;;
24901;SDS011;31328;51.402;0.016;2023-02-15T11:01:19;24.07;;;14.93;;
24901;SDS011;31328;51.402;0.016;2023-02-15T11:06:31;22.70;;;14.63;;
24901;SDS011;31328;51.402;0.016;2023-02-15T11:09:04;24.40;;;15.47;;
24901;SDS011;31328;51.402;0.016;2023-02-15T11:11:39;25.00;;;15.43;;
24901;SDS011;31328;51.402;0.016;2023-02-15T11:16:50;21.13;;;14.13;;
24901;SDS011;31328;51.402;0.016;2023-02-15T11:19:21;23.10;;;14.57;;
24901;SDS011;31328;51.402;0.016;2023-02-15T11:21:59;21.00;;;13.90;;
24901;SDS011;31328;51.402;0.016;2023-02-15T11:24:28;23.20;;;14.00;;
24901;SDS011;31328;51.402;0.016;2023-02-15T11:27:02;23.13;;;15.20;;
24901;SDS011;31328;51.402;0.016;2023-02-15T11:29:41;20.70;;;13.77;;
24901;SDS011;31328;51.402;0.016;2023-02-15T11:32:32;20.90;;;13.53;;
24901;SDS011;31328;51.402;0.016;2023-02-15T11:46:05;18.40;;;12.37;;
24901;SDS011;31328;51.402;0.016;2023-02-15T11:48:34;18.77;;;11.77;;
24901;SDS011;31328;51.402;0.016;2023-02-15T11:51:02;19.57;;;11.27;;
24901;SDS011;31328;51.402;0.016;2023-02-15T11:53:32;14.70;;;10.27;;
24901;SDS011;31328;51.402;0.016;2023-02-15T11:56:03;18.38;;;11.13;;
24901;SDS011;31328;51.402;0.016;2023-02-15T12:01:32;16.90;;;10.77;;
24901;SDS011;31328;51.402;0.016;2023-02-15T12:04:04;15.80;;;10.23;;
24901;SDS011;31328;51.402;0.016;2023-02-15T12:06:44;18.23;;;10.70;;
24901;SDS011;31328;51.402;0.016;2023-02-15T12:11:44;17.20;;;10.67;;
24901;SDS011;31328;51.402;0.016;2023-02-15T12:14:11;15.05;;;9.77;;
24901;SDS011;31328;51.402;0.016;2023-02-15T12:16:44;16.23;;;10.07;;
24901;SDS011;31328;51.402;0.016;2023-02-15T12:21:53;16.03;;;9.47;;
24901;SDS011;31328;51.402;0.016;2023-02-15T12:24:23;15.57;;;9.48;;
24901;SDS011;31328;51.402;0.016;2023-02-15T12:27:03;17.13;;;9.45;;
24901;SDS011;31328;51.402;0.016;2023-02-15T12:29:56;15.63;;;9.55;;
24901;SDS011;31328;51.402;0.016;2023-02-15T12:33:01;13.50;;;8.85;;
24901;SDS011;31328;51.402;0.016;2023-02-15T12:35:42;13.88;;;8.93;;
24901;SDS011;31328;51.402;0.016;2023-02-15T12:40:36;13.60;;;8.23;;
24901;SDS011;31328;51.402;0.016;2023-02-15T12:43:03;12.20;;;8.93;;
24901;SDS011;31328;51.402;0.016;2023-02-15T12:45:35;14.38;;;8.60;;
24901;SDS011;31328;51.402;0.016;2023-02-15T12:50:40;17.90;;;9.27;;
24901;SDS011;31328;51.402;0.016;2023-02-15T12:53:18;15.02;;;7.95;;
24901;SDS011;31328;51.402;0.016;2023-02-15T12:55:58;14.85;;;9.00;;
24901;SDS011;31328;51.402;0.016;2023-02-15T12:58:29;13.60;;;8.18;;
24901;SDS011;31328;51.402;0.016;2023-02-15T13:03:50;12.88;;;7.95;;
24901;SDS011;31328;51.402;0.016;2023-02-15T13:06:27;12.98;;;7.82;;
24901;SDS011;31328;51.402;0.016;2023-02-15T13:09:05;10.45;;;7.35;;
24901;SDS011;31328;51.402;0.016;2023-02-15T13:11:43;11.90;;;7.93;;
24901;SDS011;31328;51.402;0.016;2023-02-15T13:14:17;13.25;;;8.15;;
24901;SDS011;31328;51.402;0.016;2023-02-15T13:16:52;13.27;;;8.07;;
24901;SDS011;31328;51.402;0.016;2023-02-15T13:19:24;12.38;;;7.88;;
24901;SDS011;31328;51.402;0.016;2023-02-15T13:21:52;10.18;;;7.68;;
24901;SDS011;31328;51.402;0.016;2023-02-15T13:24:24;14.98;;;7.93;;
24901;SDS011;31328;51.402;0.016;2023-02-15T13:27:07;10.48;;;7.43;;
24901;SDS011;31328;51.402;0.016;2023-02-15T13:29:42;10.77;;;7.03;;
24901;SDS011;31328;51.402;0.016;2023-02-15T13:32:16;12.80;;;7.50;;
24901;SDS011;31328;51.402;0.016;2023-02-15T13:35:02;13.57;;;7.70;;
24901;SDS011;31328;51.402;0.016;2023-02-15T13:37:44;10.35;;;7.63;;
24901;SDS011;31328;51.402;0.016;2023-02-15T13:40:28;12.32;;;6.93;;
24901;SDS011;31328;51.402;0.016;2023-02-15T13:46:27;10.55;;;6.63;;
24901;SDS011;31328;51.402;0.016;2023-02-15T14:10:59;13.32;;;6.80;;
24901;SDS011;31328;51.402;0.016;2023-02-15T14:19:16;10.63;;;5.38;;
24901;SDS011;31328;51.402;0.016;2023-02-15T14:27:39;11.40;;;6.32;;
24901;SDS011;31328;51.402;0.016;2023-02-15T14:30:25;10.60;;;5.57;;
24901;SDS011;31328;51.402;0.016;2023-02-15T14:33:00;9.52;;;5.97;;
24901;SDS011;31328;51.402;0.016;2023-02-15T14:35:50;11.60;;;5.93;;
24901;SDS011;31328;51.402;0.016;2023-02-15T14:41:04;11.95;;;5.68;;
24901;SDS011;31328;51.402;0.016;2023-02-15T14:46:10;9.95;;;5.13;;
24901;SDS011;31328;51.402;0.016;2023-02-15T14:49:12;9.77;;;5.60;;
24901;SDS011;31328;51.402;0.016;2023-02-15T14:57:20;9.43;;;4.85;;
24901;SDS011;31328;51.402;0.016;2023-02-15T15:02:49;11.40;;;5.78;;
24901;SDS011;31328;51.402;0.016;2023-02-15T15:07:51;8.80;;;5.05;;
24901;SDS011;31328;51.402;0.016;2023-02-15T15:12:47;9.65;;;5.43;;
24901;SDS011;31328;51.402;0.016;2023-02-15T15:15:45;11.93;;;5.20;;
24901;SDS011;31328;51.402;0.016;2023-02-15T15:18:58;11.75;;;4.80;;
24901;SDS011;31328;51.402;0.016;2023-02-15T15:49:39;11.63;;;4.78;;
24901;SDS011;31328;51.402;0.016;2023-02-15T15:52:14;9.80;;;4.80;;
24901;SDS011;31328;51.402;0.016;2023-02-15T15:54:42;8.65;;;4.63;;
24901;SDS011;31328;51.402;0.016;2023-02-15T15:57:45;8.75;;;4.20;;
24901;SDS011;31328;51.402;0.016;2023-02-15T16:00:05;6.90;;;4.40;;
24901;SDS011;31328;51.402;0.016;2023-02-15T16:02:52;8.93;;;4.68;;
24901;SDS011;31328;51.402;0.016;2023-02-15T16:05:21;8.60;;;4.75;;
24901;SDS011;31328;51.402;0.016;2023-02-15T16:07:48;9.23;;;4.18;;
24901;SDS011;31328;51.402;0.016;2023-02-15T16:12:49;6.93;;;4.15;;
24901;SDS011;31328;51.402;0.016;2023-02-15T16:15:21;6.85;;;4.00;;
24901;SDS011;31328;51.402;0.016;2023-02-15T16:17:53;15.27;;;5.30;;
24901;SDS011;31328;51.402;0.016;2023-02-15T16:20:26;8.63;;;4.25;;
24901;SDS011;31328;51.402;0.016;2023-02-15T16:29:12;9.02;;;4.60;;
24901;SDS011;31328;51.402;0.016;2023-02-15T16:31:43;8.70;;;5.22;;
24901;SDS011;31328;51.402;0.016;2023-02-15T16:34:26;10.07;;;4.90;;
24901;SDS011;31328;51.402;0.016;2023-02-15T16:37:14;7.32;;;5.07;;
24901;SDS011;31328;51.402;0.016;2023-02-15T16:39:42;11.30;;;4.78;;
24901;SDS011;31328;51.402;0.016;2023-02-15T16:42:10;10.93;;;4.40;;
24901;SDS011;31328;51.402;0.016;2023-02-15T16:44:39;8.98;;;5.38;;
24901;SDS011;31328;51.402;0.016;2023-02-15T16:47:09;8.13;;;5.45;;
24901;SDS011;31328;51.402;0.016;2023-02-15T16:49:43;9.10;;;5.43;;
24901;SDS011;31328;51.402;0.016;2023-02-15T16:52:14;10.90;;;5.23;;
24901;SDS011;31328;51.402;0.016;2023-02-15T16:54:45;10.20;;;5.55;;
24901;SDS011;31328;51.402;0.016;2023-02-15T16:57:16;8.10;;;5.30;;
24901;SDS011;31328;51.402;0.016;2023-02-15T16:59:46;9.18;;;6.05;;
24901;SDS011;31328;51.402;0.016;2023-02-15T17:02:18;12.17;;;5.60;;
24901;SDS011;31328;51.402;0.016;2023-02-15T17:07:40;10.50;;;5.67;;
24901;SDS011;31328;51.402;0.016;2023-02-15T17:12:55;9.40;;;5.50;;
24901;SDS011;31328;51.402;0.016;2023-02-15T17:18:05;14.13;;;6.28;;
24901;SDS011;31328;51.402;0.016;2023-02-15T17:20:32;10.23;;;6.20;;
24901;SDS011;31328;51.402;0.016;2023-02-15T17:22:59;10.52;;;5.78;;
24901;SDS011;31328;51.402;0.016;2023-02-15T17:25:35;10.60;;;6.87;;
24901;SDS011;31328;51.402;0.016;2023-02-15T17:28:04;11.40;;;6.37;;
24901;SDS011;31328;51.402;0.016;2023-02-15T17:30:41;14.27;;;6.17;;
24901;SDS011;31328;51.402;0.016;2023-02-15T17:33:19;14.10;;;7.33;;
24901;SDS011;31328;51.402;0.016;2023-02-15T17:43:49;12.03;;;6.67;;
24901;SDS011;31328;51.402;0.016;2023-02-15T17:46:15;14.50;;;7.67;;
24901;SDS011;31328;51.402;0.016;2023-02-15T17:48:46;11.73;;;7.17;;
24901;SDS011;31328;51.402;0.016;2023-02-15T17:51:14;11.13;;;6.57;;
24901;SDS011;31328;51.402;0.016;2023-02-15T17:53:41;13.10;;;8.07;;
24901;SDS011;31328;51.402;0.016;2023-02-15T17:56:31;12.63;;;7.73;;
24901;SDS011;31328;51.402;0.016;2023-02-15T17:58:58;13.63;;;6.90;;
24901;SDS011;31328;51.402;0.016;2023-02-15T18:01:25;11.33;;;7.40;;
24901;SDS011;31328;51.402;0.016;2023-02-15T18:04:11;11.45;;;7.15;;
24901;SDS011;31328;51.402;0.016;2023-02-15T18:06:56;12.17;;;6.40;;
24901;SDS011;31328;51.402;0.016;2023-02-15T18:09:42;13.30;;;7.80;;
24901;SDS011;31328;51.402;0.016;2023-02-15T18:12:31;12.47;;;7.47;;
24901;SDS011;31328;51.402;0.016;2023-02-15T18:14:59;13.20;;;7.70;;
24901;SDS011;31328;51.402;0.016;2023-02-15T18:17:43;12.73;;;7.57;;
24901;SDS011;31328;51.402;0.016;2023-02-15T18:22:44;10.27;;;7.05;;
24901;SDS011;31328;51.402;0.016;2023-02-15T18:25:15;10.27;;;6.37;;
24901;SDS011;31328;51.402;0.016;2023-02-15T18:27:44;15.80;;;8.73;;
24901;SDS011;31328;51.402;0.016;2023-02-15T18:30:14;15.50;;;7.67;;
24901;SDS011;31328;51.402;0.016;2023-02-15T18:32:42;14.87;;;8.43;;
24901;SDS011;31328;51.402;0.016;2023-02-15T18:35:21;11.57;;;6.83;;
24901;SDS011;31328;51.402;0.016;2023-02-15T18:37:49;11.33;;;7.17;;
24901;SDS011;31328;51.402;0.016;2023-02-15T18:40:21;13.30;;;8.10;;
24901;SDS011;31328;51.402;0.016;2023-02-15T18:42:49;13.47;;;7.17;;
24901;SDS011;31328;51.402;0.016;2023-02-15T18:45:19;11.60;;;7.00;;
24901;SDS011;31328;51.402;0.016;2023-02-15T18:47:52;11.87;;;7.30;;
24901;SDS011;31328;51.402;0.016;2023-02-15T18:50:20;13.50;;;7.10;;
24901;SDS011;31328;51.402;0.016;2023-02-15T18:52:47;14.20;;;8.50;;
24901;SDS011;31328;51.402;0.016;2023-02-15T18:55:21;13.60;;;8.70;;
24901;SDS011;31328;51.402;0.016;2023-02-15T18:57:50;15.87;;;8.03;;
24901;SDS011;31328;51.402;0.016;2023-02-15T19:00:19;16.33;;;8.07;;